METAR Data
IDs: Format: Raw Decoded Include TAF

Data at: 1344 UTC 14 Dec 2019

KFLP 141256Z AUTO 31011G19KT 10SM OVC015 06/03 A2981 RMK AO2 SLP098 T00610033
KFLP 141239Z AUTO 31009G21KT 10SM SCT015 BKN022 06/03 A2981 RMK AO2
KFLP 141156Z AUTO 27003KT 10SM CLR 00/M01 A2978 RMK AO2 SLP086 T00001006 10017 21011 53006 FZRANO
KFLP 141056Z AUTO 19003KT 9SM CLR 00/M01 A2975 RMK AO2 SLP077 T00001006 FZRANO
KFLP 140956Z AUTO 00000KT 10SM BKN100 01/00 A2975 RMK AO2 SLP076 T00060000 FZRANO
KFLP 140856Z AUTO 17003KT 10SM SCT090 01/01 A2976 RMK AO2 SLP080 T00110006 58014 FZRANO
KFLP 140756Z AUTO 00000KT 10SM CLR 01/M01 A2978 RMK AO2 SLP086 T00061006 FZRANO
KFLP 140656Z AUTO 00000KT 10SM CLR 01/M01 A2979 RMK AO2 SLP089 T00111006 FZRANO
KFLP 140556Z AUTO 00000KT 10SM FEW110 01/00 A2980 RMK AO2 SLP095 T00060000 10067 20006 401110006 58016 FZRANO
KFLP 140456Z AUTO 00000KT 7SM OVC110 02/00 A2983 RMK AO2 SLP104 T00170000 FZRANO
KFLP 140356Z AUTO 00000KT 6SM BR BKN100 02/00 A2984 RMK AO2 SLP105 T00220000 FZRANO
KFLP 140256Z AUTO 00000KT 10SM BKN110 03/01 A2985 RMK AO2 SLP110 T00330006 53004
KFLP 140156Z AUTO 00000KT 10SM CLR 03/01 A2985 RMK AO2 SLP110 T00330006
KFLP 140056Z AUTO 00000KT 10SM CLR 04/01 A2984 RMK AO2 SLP107 T00390011
KFLP 132356Z AUTO 00000KT 10SM CLR 07/01 A2984 RMK AO2 SLP107 T00670011 10111 20067 58001
KFLP 132256Z AUTO 00000KT 10SM CLR 09/01 A2984 RMK AO2 SLP107 T00890011
KFLP 132156Z AUTO 09003KT 10SM CLR 10/01 A2984 RMK AO2 SLP106 T01000011
KFLP 132056Z AUTO 00000KT 10SM CLR 11/01 A2984 RMK AO2 SLP107 T01060011 56024
KFLP 131956Z AUTO 07003KT 10SM CLR 10/01 A2984 RMK AO2 SLP108 T01000011
KFLP 131856Z AUTO 00000KT 10SM BKN050 BKN120 09/01 A2987 RMK AO2 SLP118 T00890011
KFLP 131756Z AUTO 00000KT 10SM OVC050 08/01 A2991 RMK AO2 SLP133 T00780006 10078 20011 58021
KFLP 131556Z AUTO 00000KT 10SM OVC050 04/01 A2997 RMK AO2 SLP152 T00440006
KFLP 131456Z AUTO 00000KT 10SM OVC055 03/00 A2998 RMK AO2 SLP153 T00280000 58003
KFLP 131356Z AUTO 00000KT 10SM BKN060 02/00 A2999 RMK AO2 SLP157 T00170000 FZRANO
KFLP 131256Z AUTO 00000KT 10SM CLR 01/M01 A2999 RMK AO2 SLP157 T00111011 FZRANO
KFLP 131156Z AUTO 00000KT 10SM CLR 02/M01 A2999 RMK AO2 SLP158 6//// 7//// T00171011 10028 20011 56013 FZRANO
KFLP 131056Z AUTO 00000KT 10SM CLR 02/M01 A2999 RMK AO2 SLP157 T00171006 FZRANO
KFLP 130956Z AUTO 00000KT 10SM CLR 02/M01 A3001 RMK AO2 SLP163 T00171011 FZRANO
KFLP 130856Z AUTO 00000KT 10SM FEW070 BKN110 02/M01 A3003 RMK AO2 SLP168 6//// T00171006 57020 FZRANO
KFLP 130756Z AUTO 00000KT 10SM CLR 02/M01 A3005 RMK AO2 SLP176 T00221006 FZRANO
KFLP 130656Z AUTO 04003KT 10SM CLR 02/M02 A3006 RMK AO2 SLP180 T00221022 FZRANO
KFLP 130556Z AUTO 00000KT 10SM BKN080 02/M03 A3009 RMK AO2 SLP189 6//// T00171033 10078 20006 401280006 58007 FZRANO
KFLP 130456Z AUTO 00000KT 10SM BKN090 02/M04 A3009 RMK AO2 SLP192 T00221039 FZRANO
KFLP 130356Z AUTO 00000KT 10SM CLR 02/M04 A3010 RMK AO2 SLP198 T00221044 FZRANO
KFLP 130256Z AUTO 00000KT 10SM CLR 04/M05 A3011 RMK AO2 SLP199 6//// T00441050 58006
KFLP 130156Z AUTO 00000KT 10SM CLR 06/M05 A3012 RMK AO2 SLP204 T00611050